Terminal Aerodrome Forecast
Issued by NWS

Home | Current Version | Previous Version | Text Only | Print | Product List | Glossary On
Versions: 1 2 3 4 5 6 7 8 9 10 11 12 13 14 15 16 17 18 19 20 21 22 23 24 25 26 27 28 29 30 31 32 33 34 35 36 37 38
856
FTUS43 KDMX 111130 AAB
TAFMCW
TAF AMD
KMCW 111130Z 1112/1212 13010KT P6SM FEW009 SCT020 OVC035
      TEMPO 1112/1114 BKN008
     FM111400 13006KT 6SM BR SCT008 OVC015
     FM111600 VRB04KT 4SM BR OVC007
     FM112000 30010KT P6SM OVC010
     FM120400 29010KT P6SM SCT015 BKN030=

USA.gov is the U.S. government's official web portal to all federal, state and local government web resources and services.